createdAt,value
2018-09-30T00:01:17.417Z,3.50
2018-09-30T00:03:46.115Z,3.48
2018-09-30T00:06:14.683Z,3.45
2018-09-30T00:08:43.226Z,3.44
2018-09-30T00:11:11.782Z,3.46
2018-09-30T00:13:40.321Z,3.48
2018-09-30T00:16:09.101Z,3.50
2018-09-30T00:18:37.707Z,3.53
2018-09-30T00:21:06.294Z,3.59
2018-09-30T00:23:39.946Z,3.64
2018-09-30T00:26:14.060Z,3.66
2018-09-30T00:28:42.658Z,3.69
2018-09-30T00:31:11.237Z,3.73
2018-09-30T00:33:45.207Z,3.92
2018-09-30T00:36:13.814Z,4.04
2018-09-30T00:38:42.554Z,4.08
2018-09-30T00:41:11.098Z,4.12
2018-09-30T00:43:39.949Z,4.11
2018-09-30T00:46:09.022Z,4.02
2018-09-30T00:48:38.547Z,4.10
2018-09-30T00:51:07.119Z,4.19
2018-09-30T00:53:36.907Z,4.14
2018-09-30T00:56:05.489Z,4.17
2018-09-30T00:58:34.069Z,4.20
2018-09-30T01:01:02.892Z,4.20
2018-09-30T01:03:31.489Z,4.10
2018-09-30T01:06:08.652Z,4.01
2018-09-30T01:08:40.986Z,3.85
2018-09-30T01:11:13.483Z,3.77
2018-09-30T01:13:48.416Z,3.80
2018-09-30T01:16:20.969Z,3.85
2018-09-30T01:18:53.646Z,3.77
2018-09-30T01:21:23.943Z,3.60
2018-09-30T01:23:53.981Z,3.60
2018-09-30T01:26:24.903Z,3.45
2018-09-30T01:29:01.906Z,3.40
2018-09-30T01:31:32.769Z,3.39
2018-09-30T01:34:05.664Z,3.38
2018-09-30T01:36:39.741Z,3.44
2018-09-30T01:39:10.213Z,3.41
2018-09-30T01:41:41.280Z,3.50
2018-09-30T01:44:09.947Z,3.44
2018-09-30T01:46:39.340Z,3.36
2018-09-30T01:49:07.887Z,3.32
2018-09-30T01:51:36.813Z,3.30
2018-09-30T01:54:05.353Z,3.31
2018-09-30T01:56:33.928Z,3.27
2018-09-30T01:59:02.651Z,3.15
2018-09-30T02:01:31.346Z,3.13
2018-09-30T02:03:59.959Z,3.18
2018-09-30T02:06:28.492Z,3.27
2018-09-30T02:08:57.071Z,3.32
2018-09-30T02:11:25.661Z,3.25
2018-09-30T02:13:54.234Z,3.17
2018-09-30T02:16:22.973Z,3.11
2018-09-30T02:18:51.894Z,3.14
2018-09-30T02:21:20.431Z,3.12
2018-09-30T02:23:49.035Z,2.98
2018-09-30T02:26:17.634Z,3.00
2018-09-30T02:28:46.225Z,2.99
2018-09-30T02:31:14.792Z,2.94
2018-09-30T02:33:43.514Z,2.91
2018-09-30T02:36:12.131Z,2.91
2018-09-30T02:38:40.694Z,2.94
2018-09-30T02:41:09.780Z,2.90
2018-09-30T02:43:38.363Z,2.87
2018-09-30T02:46:06.905Z,2.86
2018-09-30T02:48:35.501Z,2.79
2018-09-30T02:51:04.136Z,2.72
2018-09-30T02:53:33.537Z,2.80
2018-09-30T02:56:02.333Z,2.89
2018-09-30T02:58:30.982Z,2.87
2018-09-30T03:00:59.566Z,2.80
2018-09-30T03:03:28.164Z,2.86
2018-09-30T03:05:56.838Z,2.86
2018-09-30T03:09:31.774Z,2.83
2018-09-30T03:12:00.350Z,2.89
2018-09-30T03:14:28.934Z,2.87
2018-09-30T03:16:57.533Z,2.82
2018-09-30T03:19:26.441Z,2.76
2018-09-30T03:21:55.089Z,2.70
2018-09-30T03:24:23.863Z,2.67
2018-09-30T03:26:52.424Z,2.78
2018-09-30T03:29:21.027Z,2.73
2018-09-30T03:31:49.590Z,2.68
2018-09-30T03:34:18.135Z,2.74
2018-09-30T03:36:46.697Z,2.74
2018-09-30T03:39:15.403Z,2.86
2018-09-30T03:41:44.090Z,2.81
2018-09-30T03:44:12.642Z,2.77
2018-09-30T03:46:41.223Z,2.77
2018-09-30T03:49:10.151Z,2.89
2018-09-30T03:51:38.870Z,2.89
2018-09-30T03:54:07.500Z,2.91
2018-09-30T03:56:36.108Z,2.82
2018-09-30T03:59:04.958Z,2.75
2018-09-30T04:01:33.517Z,2.77
2018-09-30T04:04:02.045Z,2.78
2018-09-30T04:06:30.661Z,2.89
2018-09-30T04:08:59.250Z,2.97
2018-09-30T04:11:27.788Z,2.87
2018-09-30T04:13:56.479Z,2.74
2018-09-30T04:16:25.104Z,2.80
2018-09-30T04:18:53.713Z,2.85
2018-09-30T04:21:22.297Z,2.82
2018-09-30T04:23:55.186Z,2.82
2018-09-30T04:26:23.727Z,2.86
2018-09-30T04:28:52.306Z,2.74
2018-09-30T04:31:20.837Z,2.66
2018-09-30T04:33:49.439Z,2.77
2018-09-30T04:36:18.076Z,2.72
2018-09-30T04:38:46.785Z,2.66
2018-09-30T04:41:15.398Z,2.58
2018-09-30T04:43:43.955Z,2.57
2018-09-30T04:46:12.498Z,2.51
2018-09-30T04:48:41.073Z,2.62
2018-09-30T04:51:09.657Z,2.74
2018-09-30T04:53:38.446Z,2.95
2018-09-30T04:56:07.232Z,3.05
2018-09-30T04:58:36.239Z,3.14
2018-09-30T05:01:04.877Z,3.21
2018-09-30T05:03:33.435Z,3.35
2018-09-30T05:06:02.002Z,3.55
2018-09-30T05:08:30.593Z,3.63
2018-09-30T05:10:59.210Z,3.71
2018-09-30T05:13:28.043Z,3.80
2018-09-30T05:15:56.732Z,3.85
2018-09-30T05:18:25.440Z,3.88
2018-09-30T05:20:54.009Z,3.98
2018-09-30T05:23:22.566Z,4.07
2018-09-30T05:25:51.150Z,4.16
2018-09-30T05:28:19.686Z,4.26
2018-09-30T05:30:48.802Z,4.31
2018-09-30T05:33:17.565Z,4.40
2018-09-30T05:35:46.147Z,4.51
2018-09-30T05:38:14.734Z,4.57
2018-09-30T05:40:43.277Z,4.69
2018-09-30T05:43:11.867Z,4.81
2018-09-30T05:45:40.438Z,4.96
2018-09-30T05:48:09.154Z,5.09
2018-09-30T05:50:37.917Z,5.23
2018-09-30T05:53:06.688Z,5.40
2018-09-30T05:55:35.215Z,5.81
2018-09-30T05:58:04.163Z,6.95
2018-09-30T06:00:32.907Z,8.03
2018-09-30T06:03:01.751Z,9.01
2018-09-30T06:05:30.531Z,9.72
2018-09-30T06:07:59.886Z,10.58
2018-09-30T06:10:29.006Z,11.56
2018-09-30T06:12:57.704Z,12.13
2018-09-30T06:15:26.324Z,12.57
2018-09-30T06:17:54.884Z,12.83
2018-09-30T06:20:23.455Z,13.59
2018-09-30T06:22:51.993Z,13.77
2018-09-30T06:25:20.749Z,14.01
2018-09-30T06:27:49.391Z,14.49
2018-09-30T06:30:17.941Z,15.03
2018-09-30T06:32:46.563Z,15.41
2018-09-30T06:35:15.154Z,15.50
2018-09-30T06:37:43.742Z,15.03
2018-09-30T06:40:12.372Z,14.76
2018-09-30T06:42:41.817Z,15.29
2018-09-30T06:45:10.604Z,15.67
2018-09-30T06:47:39.358Z,15.79
2018-09-30T06:50:07.943Z,15.99
2018-09-30T06:52:36.594Z,16.53
2018-09-30T06:55:05.442Z,17.05
2018-09-30T06:57:34.050Z,16.65
2018-09-30T07:00:02.612Z,16.41
2018-09-30T07:02:31.430Z,16.25
2018-09-30T07:05:00.357Z,15.90
2018-09-30T07:07:29.257Z,16.25
2018-09-30T07:09:57.902Z,16.09
2018-09-30T07:12:26.550Z,16.17
2018-09-30T07:14:55.320Z,15.56
2018-09-30T07:17:24.024Z,15.04
2018-09-30T07:19:52.878Z,14.91
2018-09-30T07:22:21.662Z,15.38
2018-09-30T07:24:50.991Z,16.12
2018-09-30T07:27:19.728Z,16.67
2018-09-30T07:29:49.055Z,17.26
2018-09-30T07:32:18.078Z,18.02
2018-09-30T07:34:46.726Z,19.04
2018-09-30T07:37:15.448Z,19.09
2018-09-30T07:39:44.135Z,19.17
2018-09-30T07:42:12.954Z,18.91
2018-09-30T07:44:42.924Z,19.35
2018-09-30T07:47:11.890Z,20.75
2018-09-30T07:49:40.636Z,21.65
2018-09-30T07:52:09.858Z,21.93
2018-09-30T07:54:38.501Z,21.57
2018-09-30T07:57:07.772Z,21.06
2018-09-30T07:59:36.673Z,20.60
2018-09-30T08:02:07.579Z,20.24
2018-09-30T08:04:36.174Z,20.76
2018-09-30T08:07:05.095Z,21.08
2018-09-30T08:09:33.762Z,21.53
2018-09-30T08:12:02.634Z,22.25
2018-09-30T08:14:32.600Z,23.01
2018-09-30T08:17:01.360Z,22.76
2018-09-30T08:19:31.317Z,22.31
2018-09-30T08:22:00.818Z,22.56
2018-09-30T08:24:29.496Z,21.72
2018-09-30T08:26:58.307Z,20.60
2018-09-30T08:29:27.002Z,20.30
2018-09-30T08:31:55.571Z,19.52
2018-09-30T08:34:24.243Z,18.51
2018-09-30T08:36:53.071Z,18.15
2018-09-30T08:39:21.742Z,17.95
2018-09-30T08:41:50.426Z,17.76
2018-09-30T08:44:19.053Z,17.68
2018-09-30T08:46:47.847Z,17.40
2018-09-30T08:49:16.631Z,16.82
2018-09-30T08:51:46.235Z,16.30
2018-09-30T08:54:14.934Z,16.36
2018-09-30T08:56:45.219Z,16.67
2018-09-30T08:59:14.016Z,17.03
2018-09-30T09:01:43.584Z,17.04
2018-09-30T09:04:12.249Z,17.14
2018-09-30T09:06:40.965Z,17.18
2018-09-30T09:09:11.275Z,17.25
2018-09-30T09:11:39.850Z,17.36
2018-09-30T09:14:08.454Z,17.25
2018-09-30T09:16:37.699Z,17.14
2018-09-30T09:19:06.637Z,16.73
2018-09-30T09:21:35.320Z,16.72
2018-09-30T09:24:04.661Z,16.68
2018-09-30T09:26:33.788Z,16.60
2018-09-30T09:29:02.881Z,16.56
2018-09-30T09:31:31.530Z,16.51
2018-09-30T09:34:00.654Z,16.38
2018-09-30T09:36:29.847Z,16.25
2018-09-30T09:38:58.760Z,16.17
2018-09-30T09:41:28.452Z,16.03
2018-09-30T09:43:57.249Z,16.03
2018-09-30T09:46:26.060Z,16.22
2018-09-30T09:48:54.638Z,16.37
2018-09-30T09:51:23.256Z,16.56
2018-09-30T09:53:51.818Z,16.73
2018-09-30T09:56:20.358Z,16.82
2018-09-30T09:58:48.913Z,16.88
2018-09-30T10:01:17.582Z,16.92
2018-09-30T10:03:46.279Z,17.04
2018-09-30T10:06:14.883Z,17.12
2018-09-30T10:08:43.473Z,16.78
2018-09-30T10:11:12.039Z,16.69
2018-09-30T10:13:40.610Z,16.80
2018-09-30T10:16:09.231Z,16.88
2018-09-30T10:18:37.788Z,16.86
2018-09-30T10:21:06.497Z,16.88
2018-09-30T10:23:35.183Z,16.98
2018-09-30T10:26:03.737Z,17.06
2018-09-30T10:28:32.366Z,16.91
2018-09-30T10:31:00.934Z,16.68
2018-09-30T10:33:29.492Z,16.69
2018-09-30T10:35:58.180Z,16.79
2018-09-30T10:38:27.035Z,16.87
2018-09-30T10:40:55.741Z,16.67
2018-09-30T10:43:24.325Z,16.62
2018-09-30T10:45:52.899Z,16.76
2018-09-30T10:48:21.487Z,16.74
2018-09-30T10:50:50.208Z,16.81
2018-09-30T10:53:18.867Z,16.92
2018-09-30T10:55:47.633Z,16.90
2018-09-30T10:58:16.165Z,16.83
2018-09-30T11:00:44.710Z,16.66
2018-09-30T11:03:13.244Z,16.64
2018-09-30T11:05:41.829Z,16.54
2018-09-30T11:08:10.379Z,16.47
2018-09-30T11:10:39.009Z,16.38
2018-09-30T11:13:07.630Z,16.22
2018-09-30T11:15:36.169Z,16.14
2018-09-30T11:18:04.762Z,16.24
2018-09-30T11:20:33.318Z,16.30
2018-09-30T11:23:01.881Z,16.46
2018-09-30T11:25:30.705Z,16.56
2018-09-30T11:27:59.471Z,16.59
2018-09-30T11:30:28.127Z,16.52
2018-09-30T11:32:56.750Z,16.47
2018-09-30T11:35:25.388Z,16.47
2018-09-30T11:37:54.178Z,16.48
2018-09-30T11:40:22.786Z,16.56
2018-09-30T11:42:51.607Z,16.38
2018-09-30T11:45:20.261Z,16.36
2018-09-30T11:47:49.258Z,16.39
2018-09-30T11:50:17.830Z,16.51
2018-09-30T11:52:46.472Z,16.62
2018-09-30T11:55:17.547Z,16.67
2018-09-30T11:57:46.088Z,16.66
2018-09-30T12:00:14.652Z,16.66
2018-09-30T12:02:43.701Z,16.76
2018-09-30T12:05:12.260Z,16.74
2018-09-30T12:07:40.997Z,16.80
2018-09-30T12:10:09.798Z,16.75
2018-09-30T12:12:38.402Z,16.81
2018-09-30T12:15:07.340Z,16.88
2018-09-30T12:17:35.885Z,16.86
2018-09-30T12:20:04.570Z,16.78
2018-09-30T12:22:33.123Z,16.79
2018-09-30T12:25:01.934Z,16.85
2018-09-30T12:27:30.525Z,16.94
2018-09-30T12:29:59.110Z,16.98
2018-09-30T12:32:27.709Z,16.89
2018-09-30T12:34:56.354Z,16.91
2018-09-30T12:37:25.083Z,17.04
2018-09-30T12:39:53.686Z,17.06
2018-09-30T12:42:22.727Z,17.13
2018-09-30T12:44:51.422Z,17.16
2018-09-30T12:47:20.039Z,17.30
2018-09-30T12:49:48.583Z,17.25
2018-09-30T12:52:17.133Z,17.15
2018-09-30T12:54:45.686Z,17.03
2018-09-30T12:57:14.299Z,17.03
2018-09-30T12:59:43.014Z,17.14
2018-09-30T13:02:11.577Z,17.20
2018-09-30T13:04:40.125Z,17.15
2018-09-30T13:07:08.690Z,17.11
2018-09-30T13:09:37.301Z,17.11
2018-09-30T13:12:05.866Z,17.09
2018-09-30T13:14:34.672Z,17.14
2018-09-30T13:17:03.412Z,17.15
2018-09-30T13:19:32.024Z,17.09
2018-09-30T13:22:00.631Z,17.12
2018-09-30T13:24:29.186Z,17.10
2018-09-30T13:26:57.793Z,17.21
2018-09-30T13:29:26.334Z,17.22
2018-09-30T13:31:54.892Z,17.23
2018-09-30T13:34:23.610Z,17.21
2018-09-30T13:36:52.437Z,17.26
2018-09-30T13:39:20.997Z,17.31
2018-09-30T13:41:49.556Z,17.33
2018-09-30T13:44:18.105Z,17.38
2018-09-30T13:46:46.710Z,17.37
2018-09-30T13:49:15.414Z,17.34
2018-09-30T13:51:44.098Z,17.31
2018-09-30T13:54:12.821Z,17.25
2018-09-30T13:56:41.380Z,17.20
2018-09-30T13:59:09.958Z,17.15
2018-09-30T14:01:38.524Z,17.13
2018-09-30T14:04:07.269Z,17.15
2018-09-30T14:06:35.826Z,17.21
2018-09-30T14:09:06.053Z,17.25
2018-09-30T14:11:34.822Z,17.24
2018-09-30T14:14:03.553Z,17.21
2018-09-30T14:16:32.140Z,17.11
2018-09-30T14:19:00.697Z,17.10
2018-09-30T14:21:29.269Z,17.08
2018-09-30T14:23:57.825Z,17.07
2018-09-30T14:26:26.365Z,17.04
2018-09-30T14:28:55.059Z,17.09
2018-09-30T14:31:23.640Z,17.05
2018-09-30T14:33:52.154Z,16.96
2018-09-30T14:36:20.709Z,16.93
2018-09-30T14:38:49.246Z,16.93
2018-09-30T14:41:17.789Z,16.87
2018-09-30T14:43:46.450Z,16.82
2018-09-30T14:46:15.106Z,16.79
2018-09-30T14:48:43.820Z,16.78
2018-09-30T14:51:12.525Z,16.76
2018-09-30T14:53:41.107Z,16.73
2018-09-30T14:56:09.675Z,16.72
2018-09-30T14:58:38.219Z,16.65
2018-09-30T15:01:07.010Z,16.60
2018-09-30T15:03:35.802Z,16.56
2018-09-30T15:06:04.432Z,16.57
2018-09-30T15:08:33.156Z,16.54
2018-09-30T15:11:01.690Z,16.50
2018-09-30T15:13:30.268Z,16.47
2018-09-30T15:15:58.810Z,16.42
2018-09-30T15:18:27.671Z,16.34
2018-09-30T15:20:56.366Z,16.31
2018-09-30T15:23:25.101Z,16.30
2018-09-30T15:25:53.680Z,16.25
2018-09-30T15:28:22.238Z,16.18
2018-09-30T15:30:51.154Z,16.14
2018-09-30T15:33:19.765Z,16.09
2018-09-30T15:35:48.427Z,16.03
2018-09-30T15:38:17.131Z,15.97
2018-09-30T15:40:46.182Z,15.93
2018-09-30T15:43:14.718Z,15.85
2018-09-30T15:45:43.289Z,15.82
2018-09-30T15:48:11.845Z,15.72
2018-09-30T15:50:40.370Z,15.70
2018-09-30T15:53:09.090Z,15.56
2018-09-30T15:55:37.659Z,15.49
2018-09-30T15:58:06.682Z,15.42
2018-09-30T16:00:35.205Z,15.43
2018-09-30T16:03:04.564Z,15.41
2018-09-30T16:05:33.132Z,15.37
2018-09-30T16:08:01.710Z,15.25
2018-09-30T16:10:30.323Z,15.20
2018-09-30T16:12:59.006Z,15.11
2018-09-30T16:15:27.874Z,15.04
2018-09-30T16:17:56.441Z,14.99
2018-09-30T16:20:25.056Z,14.95
2018-09-30T16:22:53.625Z,14.83
2018-09-30T16:25:22.305Z,14.76
2018-09-30T16:27:50.854Z,14.62
2018-09-30T16:30:19.533Z,14.52
2018-09-30T16:32:48.175Z,14.43
2018-09-30T16:35:17.386Z,14.37
2018-09-30T16:37:46.029Z,14.28
2018-09-30T16:40:14.582Z,14.23
2018-09-30T16:42:43.122Z,14.08
2018-09-30T16:45:11.676Z,14.00
2018-09-30T16:47:40.470Z,13.86
2018-09-30T16:50:09.254Z,13.77
2018-09-30T16:52:38.480Z,13.68
2018-09-30T16:55:08.057Z,13.62
2018-09-30T16:57:36.883Z,13.58
2018-09-30T17:00:06.377Z,13.58
2018-09-30T17:02:36.594Z,13.52
2018-09-30T17:05:05.279Z,13.48
2018-09-30T17:07:33.967Z,13.42
2018-09-30T17:10:02.682Z,13.39
2018-09-30T17:12:31.401Z,13.29
2018-09-30T17:15:00.328Z,13.23
2018-09-30T17:17:29.129Z,13.18
2018-09-30T17:19:57.912Z,13.00
2018-09-30T17:22:26.699Z,13.00
2018-09-30T17:24:56.341Z,12.97
2018-09-30T17:27:25.011Z,12.92
2018-09-30T17:29:53.643Z,12.92
2018-09-30T17:32:22.230Z,12.90
2018-09-30T17:34:50.847Z,12.82
2018-09-30T17:37:19.786Z,12.77
2018-09-30T17:39:48.650Z,12.78
2018-09-30T17:42:17.265Z,12.69
2018-09-30T17:44:45.869Z,12.65
2018-09-30T17:47:14.424Z,12.58
2018-09-30T17:49:43.082Z,12.50
2018-09-30T17:52:11.800Z,12.45
2018-09-30T17:54:40.770Z,12.33
2018-09-30T17:57:09.732Z,12.26
2018-09-30T17:59:38.345Z,12.17
2018-09-30T18:02:07.166Z,12.20
2018-09-30T18:04:37.603Z,12.18
2018-09-30T18:07:06.803Z,12.09
2018-09-30T18:09:35.410Z,11.99
2018-09-30T18:12:04.017Z,11.99
2018-09-30T18:14:33.282Z,12.02
2018-09-30T18:17:02.126Z,12.03
2018-09-30T18:19:30.990Z,12.04
2018-09-30T18:21:59.625Z,12.10
2018-09-30T18:24:28.226Z,12.10
2018-09-30T18:26:56.808Z,12.07
2018-09-30T18:29:25.375Z,12.05
2018-09-30T18:31:54.047Z,12.04
2018-09-30T18:34:22.907Z,12.03
2018-09-30T18:36:51.963Z,12.01
2018-09-30T18:39:20.550Z,12.01
2018-09-30T18:41:49.118Z,11.96
2018-09-30T18:44:17.831Z,11.91
2018-09-30T18:46:46.377Z,11.88
2018-09-30T18:49:15.006Z,11.84
2018-09-30T18:51:43.626Z,11.79
2018-09-30T18:54:12.235Z,11.74
2018-09-30T18:56:40.832Z,11.68
2018-09-30T18:59:09.743Z,11.60
2018-09-30T19:01:38.345Z,11.57
2018-09-30T19:04:07.695Z,11.48
2018-09-30T19:06:36.368Z,11.42
2018-09-30T19:09:06.768Z,11.34
2018-09-30T19:11:35.378Z,11.28
2018-09-30T19:14:04.202Z,11.20
2018-09-30T19:16:33.118Z,11.12
2018-09-30T19:19:01.793Z,11.08
2018-09-30T19:21:30.527Z,11.03
2018-09-30T19:23:59.226Z,10.94
2018-09-30T19:26:27.814Z,10.90
2018-09-30T19:28:56.710Z,10.87
2018-09-30T19:31:25.289Z,10.80
2018-09-30T19:33:54.010Z,10.74
2018-09-30T19:36:22.681Z,10.73
2018-09-30T19:38:51.374Z,10.68
2018-09-30T19:41:19.986Z,10.66
2018-09-30T19:43:48.696Z,10.61
2018-09-30T19:46:17.370Z,10.55
2018-09-30T19:48:46.069Z,10.45
2018-09-30T19:51:14.922Z,10.42
2018-09-30T19:53:43.613Z,10.40
2018-09-30T19:56:12.179Z,10.34
2018-09-30T19:58:40.727Z,10.27
2018-09-30T20:01:09.444Z,10.29
2018-09-30T20:03:38.129Z,10.27
2018-09-30T20:06:06.685Z,10.28
2018-09-30T20:08:35.314Z,10.25
2018-09-30T20:11:04.295Z,10.24
2018-09-30T20:13:32.857Z,10.22
2018-09-30T20:16:01.457Z,10.19
2018-09-30T20:18:30.012Z,10.25
2018-09-30T20:20:58.705Z,10.28
2018-09-30T20:23:27.470Z,10.28
2018-09-30T20:25:56.209Z,10.25
2018-09-30T20:28:26.816Z,10.23
2018-09-30T20:30:55.937Z,10.21
2018-09-30T20:33:24.694Z,10.21
2018-09-30T20:35:53.281Z,10.18
2018-09-30T20:38:21.945Z,10.13
2018-09-30T20:40:50.505Z,10.12
2018-09-30T20:43:19.045Z,10.07
2018-09-30T20:45:47.630Z,10.00
2018-09-30T20:48:16.279Z,9.97
2018-09-30T20:50:45.037Z,9.87
2018-09-30T20:53:13.602Z,9.90
2018-09-30T20:55:42.167Z,9.82
2018-09-30T20:58:10.837Z,9.72
2018-09-30T21:00:39.507Z,9.69
2018-09-30T21:03:08.250Z,9.60
2018-09-30T21:06:53.011Z,9.55
2018-09-30T21:09:22.459Z,9.45
2018-09-30T21:11:51.145Z,9.49
2018-09-30T21:14:19.839Z,9.39
2018-09-30T21:16:49.436Z,9.46
2018-09-30T21:19:18.154Z,9.33
2018-09-30T21:21:47.173Z,9.27
2018-09-30T21:24:15.985Z,9.31
2018-09-30T21:26:44.559Z,9.17
2018-09-30T21:29:13.241Z,9.20
2018-09-30T21:31:41.791Z,9.21
2018-09-30T21:34:10.436Z,9.20
2018-09-30T21:36:39.183Z,9.12
2018-09-30T21:39:09.375Z,9.01
2018-09-30T21:41:38.021Z,8.94
2018-09-30T21:44:06.936Z,8.86
2018-09-30T21:46:35.568Z,8.60
2018-09-30T21:49:04.135Z,8.48
2018-09-30T21:51:32.735Z,8.37
2018-09-30T21:54:01.341Z,8.28
2018-09-30T21:56:29.984Z,8.10
2018-09-30T21:58:58.942Z,7.90
2018-09-30T22:01:28.003Z,7.82
2018-09-30T22:03:56.652Z,7.81
2018-09-30T22:06:25.578Z,7.76
2018-09-30T22:08:54.129Z,7.77
2018-09-30T22:11:22.731Z,7.72
2018-09-30T22:13:52.012Z,7.61
2018-09-30T22:16:20.603Z,7.54
2018-09-30T22:18:49.288Z,7.46
2018-09-30T22:21:18.061Z,7.37
2018-09-30T22:23:47.706Z,7.31
2018-09-30T22:26:16.788Z,7.28
2018-09-30T22:28:45.482Z,7.21
2018-09-30T22:31:14.381Z,7.10
2018-09-30T22:33:43.065Z,6.99
2018-09-30T22:36:11.853Z,6.91
2018-09-30T22:38:40.865Z,6.83
2018-09-30T22:41:10.162Z,6.72
2018-09-30T22:43:38.727Z,6.64
2018-09-30T22:46:07.333Z,6.57
2018-09-30T22:48:35.932Z,6.52
2018-09-30T22:51:04.537Z,6.49
2018-09-30T22:53:33.097Z,6.43
2018-09-30T22:56:01.822Z,6.40
2018-09-30T22:58:30.798Z,6.37
2018-09-30T23:00:59.535Z,6.31
2018-09-30T23:03:29.653Z,6.23
2018-09-30T23:05:58.543Z,6.14
2018-09-30T23:08:27.424Z,6.11
2018-09-30T23:10:56.608Z,6.11
2018-09-30T23:13:25.154Z,6.12
2018-09-30T23:15:54.321Z,6.09
2018-09-30T23:18:23.039Z,6.31
2018-09-30T23:20:51.806Z,6.44
2018-09-30T23:23:20.902Z,6.63
2018-09-30T23:25:49.693Z,6.67
2018-09-30T23:28:19.878Z,6.73
2018-09-30T23:30:48.499Z,6.63
2018-09-30T23:33:17.099Z,6.48
2018-09-30T23:35:45.782Z,6.57
2018-09-30T23:38:14.379Z,6.53
2018-09-30T23:40:43.189Z,6.59
2018-09-30T23:43:12.217Z,6.53
2018-09-30T23:45:40.874Z,6.55
2018-09-30T23:48:09.674Z,6.79
2018-09-30T23:50:38.314Z,6.85
2018-09-30T23:53:06.890Z,6.74
2018-09-30T23:55:35.454Z,6.77
2018-09-30T23:58:10.501Z,6.75
